Березовый

Карта отелей и гостиниц, располагающихся рядом с аэропортом Березовый :



Березовый Хабаровский край 51° 39' 31.5" N, 135° 40' 9.7788" E

Березовый Хабаровский край 51° 39' 31.5" N, 135° 40' 9.7788" E
Код аэродрома ИКАО: 
HDZ3
Код аэродрома RU: 
ХДЗ3
Координаты: 
N51.65875° E135.66938°
Превышение над уровнем моря : 
166
Основная полоса: 
Курс магнитный: 
Длина основной ВПП: 
Ширина основной ВПП: 
Покрытие основной ВПП: 
Тип: 
Вертодром
Освещение ВПП: 
Класс аэродрома: 
Статус: 
Действующий
Принадлежность: 
ГА
Сайт: 
E-mail аэродрома: 
Страна: 
Россия
Регион: 
Хабаровский край
Город: 
Дополнительная информация: 
Оператор: нет данных.

Найти трансфер

С помощью этой формы Вы можете найти трансфер из аэропорта Березовый в город, аэропорт или вокзал:

Карта места

Javascript is required to view this map.

Погода в аэропортах:

Авиационная погода во Владикавказе

Регион: 
Погода METAR: 
URMO 210400Z VRB01MPS 0150 R09/M0200N FG VV002 00/00 Q1015 R09/190060 NOSIG RMK QBB070 MT OBSC QFE718/0957
Время наблюдения: 
2020-02-21T04:00:00Z
Температура C: 
0.0
Точка росы: 
0.0
Направление ветра: 
0
Скорость ветра: 
2
Метеорологическая видимость: 
0.09
Явления погоды: 
FG
Условия полета: 
LIFR
Аэропорт подробнее: 

Авиационная погода в аэропорту Байкал

Регион: 
Погода METAR: 
UIUU 210100Z 00000MPS 1800 1300NE R26/1300N BR NSC M24/M27 Q1028 R26/820550 NOSIG RMK QFE727/0969
Время наблюдения: 
2020-02-21T01:00:00Z
Температура C: 
-24.0
Точка росы: 
-27.0
Направление ветра: 
0
Скорость ветра: 
0
Метеорологическая видимость: 
1.12
Явления погоды: 
BR
Условия полета: 
IFR
Аэропорт подробнее: 

Авиационная погода в Ярославле

Регион: 
Погода METAR: 
UUDL 210400Z 19002MPS 9999 -SHRA BKN034CB 02/01 Q1018 R23/150060 NOSIG RMK QFE755
Время наблюдения: 
2020-02-21T04:00:00Z
Температура C: 
2.0
Точка росы: 
1.0
Направление ветра: 
190
Скорость ветра: 
4
Метеорологическая видимость: 
6.21
Явления погоды: 
-SHRA
Условия полета: 
VFR
Аэропорт подробнее: 

Авиационная погода в Дашогузе

Регион: 
Погода METAR: 
UTAT 210400Z 21004KT 9999 -RA OVC100 05/01 Q1012 R08/19//60 NOSIG
Время наблюдения: 
2020-02-21T04:00:00Z
Температура C: 
5.0
Точка росы: 
1.0
Направление ветра: 
210
Скорость ветра: 
4
Метеорологическая видимость: 
6.21
Явления погоды: 
-RA
Условия полета: 
VFR